Time;durP1;ratioP1;P1;durP2;ratioP2;P2;SDS_P1;SDS_P2;PMS_P1;PMS_P2;Temp;Humidity;BMP_temperature;BMP_pressure;BME280_temperature;BME280_humidity;BME280_pressure;Samples;Min_cycle;Max_cycle;Signal;HPM_P1;HPM_P2
2021/11/28 00:02:19;;;;;;;3.63;0.75;;;7.00;73.70;;;;;;5110245;28;20028;-69
2021/11/28 00:04:47;;;;;;;3.53;0.60;;;7.00;73.20;;;;;;5110072;28;20030;-67
2021/11/28 00:10:03;;;;;;;3.38;0.80;;;7.00;73.20;;;;;;5110302;28;20028;-69
2021/11/28 00:15:16;;;;;;;3.03;0.70;;;7.10;73.00;;;;;;5111521;27;20034;-68
2021/11/28 00:17:42;;;;;;;4.22;0.95;;;7.10;73.00;;;;;;5107445;28;20035;-68
2021/11/28 00:20:12;;;;;;;3.88;0.75;;;7.10;72.70;;;;;;5109609;28;20027;-69
2021/11/28 00:22:38;;;;;;;2.30;0.85;;;7.10;72.90;;;;;;5109964;28;20024;-68
2021/11/28 00:25:06;;;;;;;3.53;0.60;;;7.10;72.60;;;;;;5109456;28;20045;-68
2021/11/28 00:27:32;;;;;;;4.15;1.02;;;7.10;72.70;;;;;;5109405;28;20064;-68
2021/11/28 00:29:58;;;;;;;3.78;0.65;;;7.10;73.00;;;;;;5113612;28;20058;-68
2021/11/28 00:32:24;;;;;;;4.82;0.77;;;7.00;73.00;;;;;;5109664;28;20028;-69
2021/11/28 00:34:50;;;;;;;5.35;0.90;;;7.10;72.70;;;;;;5109393;28;20118;-69
2021/11/28 00:37:16;;;;;;;5.05;0.98;;;7.10;72.90;;;;;;5109208;28;20108;-69
2021/11/28 00:39:43;;;;;;;3.22;0.60;;;7.00;72.80;;;;;;5109589;28;20027;-70
2021/11/28 00:42:08;;;;;;;4.13;0.57;;;7.00;72.40;;;;;;5112705;28;20019;-70
2021/11/28 00:44:34;;;;;;;4.93;0.80;;;7.00;72.20;;;;;;5110292;28;20031;-67
2021/11/28 00:47:00;;;;;;;3.03;0.63;;;7.00;72.40;;;;;;5109351;28;20022;-70
2021/11/28 00:49:27;;;;;;;4.53;1.00;;;7.00;73.20;;;;;;5108705;28;20115;-69
2021/11/28 00:51:56;;;;;;;6.70;0.90;;;7.00;72.10;;;;;;5109217;28;20358;-69
2021/11/28 00:54:24;;;;;;;3.40;0.70;;;7.00;72.20;;;;;;5111237;28;20058;-69
2021/11/28 00:56:51;;;;;;;5.40;1.05;;;7.00;72.40;;;;;;5112079;28;20023;-69
2021/11/28 00:59:16;;;;;;;3.70;0.82;;;7.00;72.30;;;;;;5109450;28;20094;-70
2021/11/28 01:01:42;;;;;;;4.85;0.73;;;7.00;72.30;;;;;;5109237;28;20468;-69
2021/11/28 01:04:08;;;;;;;2.47;0.60;;;7.00;72.20;;;;;;5108937;28;20031;-70
2021/11/28 01:06:34;;;;;;;5.70;0.82;;;7.10;72.50;;;;;;5109004;28;20024;-68
2021/11/28 01:09:00;;;;;;;5.35;0.75;;;7.10;71.70;;;;;;5112685;28;20015;-69
2021/11/28 01:11:26;;;;;;;3.60;0.60;;;7.10;72.00;;;;;;5108594;28;20405;-70
2021/11/28 01:13:52;;;;;;;2.85;0.60;;;7.10;72.00;;;;;;5108306;28;20031;-69
2021/11/28 01:16:19;;;;;;;6.32;0.63;;;7.00;71.70;;;;;;5109095;28;20015;-69
2021/11/28 01:18:49;;;;;;;4.03;0.95;;;7.10;72.10;;;;;;5108469;28;20035;-68
2021/11/28 01:21:17;;;;;;;5.38;0.88;;;7.10;71.70;;;;;;5111231;28;20186;-68
2021/11/28 01:23:43;;;;;;;2.80;0.55;;;7.00;71.30;;;;;;5096533;28;20038;-68
2021/11/28 01:26:09;;;;;;;2.65;0.55;;;7.00;71.50;;;;;;5095550;28;20110;-67
2021/11/28 01:28:34;;;;;;;2.17;0.50;;;7.00;72.10;;;;;;5108665;28;20053;-67
2021/11/28 01:31:00;;;;;;;1.75;0.47;;;7.00;72.20;;;;;;5108993;28;20016;-67
2021/11/28 01:33:26;;;;;;;2.83;0.40;;;7.00;72.30;;;;;;5109810;28;20032;-67
2021/11/28 01:35:52;;;;;;;5.00;1.08;;;7.00;72.00;;;;;;5111416;28;20026;-67
2021/11/28 01:38:21;;;;;;;3.58;0.60;;;6.90;71.70;;;;;;5108414;28;20027;-67
2021/11/28 01:40:51;;;;;;;2.05;0.70;;;6.90;71.90;;;;;;5108386;28;20054;-68
2021/11/28 01:43:18;;;;;;;2.53;0.60;;;6.90;73.00;;;;;;5108647;28;20047;-68
2021/11/28 01:45:47;;;;;;;4.65;0.80;;;6.80;71.60;;;;;;5108873;28;20035;-67
2021/11/28 01:48:15;;;;;;;2.10;0.60;;;6.90;72.10;;;;;;5109055;28;20510;-68
2021/11/28 01:50:47;;;;;;;2.75;0.73;;;6.90;72.30;;;;;;5109546;28;20037;-68
2021/11/28 01:53:18;;;;;;;2.40;0.50;;;6.90;72.30;;;;;;5108091;28;20428;-67
2021/11/28 01:55:46;;;;;;;4.95;0.88;;;6.90;72.00;;;;;;5108840;28;20028;-68
2021/11/28 01:58:13;;;;;;;2.03;0.60;;;6.90;72.10;;;;;;5108531;28;20015;-67
2021/11/28 02:00:43;;;;;;;2.13;0.50;;;6.90;72.10;;;;;;5109039;28;20082;-68
2021/11/28 02:03:11;;;;;;;4.50;0.88;;;6.90;72.10;;;;;;5110790;28;20028;-68
2021/11/28 02:05:39;;;;;;;4.10;0.70;;;6.80;71.70;;;;;;5110979;28;20055;-68
2021/11/28 02:08:05;;;;;;;2.97;0.60;;;6.80;72.00;;;;;;5108380;28;20056;-68
2021/11/28 02:10:31;;;;;;;3.47;0.60;;;6.80;72.20;;;;;;5108510;28;20507;-68
2021/11/28 02:12:56;;;;;;;3.65;0.70;;;6.70;71.90;;;;;;5108701;28;20377;-69
2021/11/28 02:15:22;;;;;;;2.40;0.90;;;6.70;71.80;;;;;;5110310;28;20467;-68
2021/11/28 02:17:51;;;;;;;4.00;0.57;;;6.70;71.90;;;;;;5109972;28;20031;-68
2021/11/28 02:20:19;;;;;;;4.00;0.60;;;6.60;72.00;;;;;;5108211;28;20031;-68
2021/11/28 02:22:45;;;;;;;2.65;0.60;;;6.60;72.20;;;;;;5108197;28;20047;-69
2021/11/28 02:25:11;;;;;;;2.88;0.70;;;6.60;72.20;;;;;;5107969;28;20070;-68
2021/11/28 02:27:38;;;;;;;2.10;0.93;;;6.60;72.20;;;;;;5108146;28;20077;-68
2021/11/28 02:30:06;;;;;;;4.13;0.68;;;6.60;72.30;;;;;;5111573;28;20043;-68
2021/11/28 02:32:31;;;;;;;4.63;0.68;;;6.60;72.30;;;;;;5110333;28;20091;-69
2021/11/28 02:34:57;;;;;;;4.22;0.70;;;6.60;72.20;;;;;;5108341;28;20537;-69
2021/11/28 02:37:23;;;;;;;3.80;0.65;;;6.50;72.40;;;;;;5108069;28;20600;-69
2021/11/28 02:39:49;;;;;;;6.07;0.60;;;6.50;72.60;;;;;;5108135;28;20031;-69
2021/11/28 02:42:19;;;;;;;1.67;0.52;;;6.50;72.20;;;;;;5110416;28;20026;-69
2021/11/28 02:44:46;;;;;;;2.38;0.50;;;6.50;72.40;;;;;;5109352;28;20089;-69
2021/11/28 02:47:11;;;;;;;3.58;0.65;;;6.60;72.40;;;;;;5107960;28;20020;-68
2021/11/28 02:49:37;;;;;;;3.40;1.08;;;6.50;72.50;;;;;;5107882;28;20042;-69
2021/11/28 02:52:03;;;;;;;3.17;0.82;;;6.60;72.30;;;;;;5108273;28;20060;-68
2021/11/28 02:54:29;;;;;;;4.22;0.70;;;6.60;72.30;;;;;;5108804;28;20052;-68
2021/11/28 02:56:55;;;;;;;4.38;0.65;;;6.50;72.20;;;;;;5111088;28;20019;-69
2021/11/28 02:59:20;;;;;;;3.90;0.60;;;6.50;72.30;;;;;;5107587;28;20059;-69
2021/11/28 03:01:47;;;;;;;3.13;0.60;;;6.50;72.40;;;;;;5110433;28;20020;-69
2021/11/28 03:04:13;;;;;;;3.80;0.65;;;6.50;72.40;;;;;;5111714;28;20035;-68
2021/11/28 03:06:38;;;;;;;3.78;0.60;;;6.50;72.40;;;;;;5111442;28;20488;-68
2021/11/28 03:09:05;;;;;;;3.38;0.63;;;6.50;72.50;;;;;;5115169;28;20100;-69
2021/11/28 03:11:30;;;;;;;4.15;0.60;;;6.50;72.80;;;;;;5113585;28;20020;-69
2021/11/28 03:13:56;;;;;;;2.42;0.55;;;6.50;72.60;;;;;;5111018;28;20043;-68
2021/11/28 03:16:24;;;;;;;1.95;0.50;;;6.50;72.60;;;;;;5111172;28;20023;-68
2021/11/28 03:18:51;;;;;;;2.92;0.40;;;6.50;72.60;;;;;;5111549;28;20028;-69
2021/11/28 03:21:23;;;;;;;2.30;0.60;;;6.60;72.70;;;;;;5113553;28;20016;-69
2021/11/28 03:23:51;;;;;;;3.72;0.60;;;6.60;72.60;;;;;;5113614;28;20088;-68
2021/11/28 03:26:29;;;;;;;3.83;0.57;;;6.60;72.70;;;;;;5111100;28;20365;-69
2021/11/28 03:29:01;;;;;;;2.97;0.60;;;6.70;72.70;;;;;;5110807;28;20063;-68
2021/11/28 03:31:31;;;;;;;4.43;0.80;;;6.70;72.70;;;;;;5111254;28;20027;-69
2021/11/28 03:33:57;;;;;;;4.60;0.70;;;6.70;72.50;;;;;;5111194;28;20440;-68
2021/11/28 03:36:26;;;;;;;1.73;0.50;;;6.70;72.30;;;;;;5112498;28;20031;-68
2021/11/28 03:38:52;;;;;;;4.65;0.40;;;6.70;72.30;;;;;;5113561;28;20024;-69
2021/11/28 03:41:19;;;;;;;2.97;0.70;;;6.60;72.20;;;;;;5110717;28;20050;-69
2021/11/28 03:43:47;;;;;;;2.67;0.47;;;6.60;72.10;;;;;;5110326;28;20023;-69
2021/11/28 03:46:13;;;;;;;2.97;0.65;;;6.60;72.30;;;;;;5110737;28;20043;-69
2021/11/28 03:48:39;;;;;;;4.90;0.90;;;6.60;72.30;;;;;;5110913;28;20073;-69
2021/11/28 03:51:05;;;;;;;3.17;0.77;;;6.60;72.20;;;;;;5114123;28;20020;-69
2021/11/28 03:53:32;;;;;;;3.63;0.80;;;6.60;72.50;;;;;;5097249;28;20047;-68
2021/11/28 03:56:04;;;;;;;4.53;0.55;;;6.60;72.40;;;;;;5110593;28;20475;-68
2021/11/28 03:58:30;;;;;;;3.42;0.70;;;6.70;72.30;;;;;;5110360;28;20026;-69
2021/11/28 04:00:58;;;;;;;3.13;0.80;;;6.70;72.30;;;;;;5111004;27;20032;-69
2021/11/28 04:03:24;;;;;;;4.18;0.65;;;6.70;72.20;;;;;;5112021;28;20144;-68
2021/11/28 04:05:50;;;;;;;2.97;0.60;;;6.70;72.10;;;;;;5112815;28;20069;-69
2021/11/28 04:08:15;;;;;;;4.00;0.40;;;6.70;71.90;;;;;;5110345;28;20027;-69
2021/11/28 04:10:41;;;;;;;2.92;0.70;;;6.80;72.20;;;;;;5110732;28;20106;-69
2021/11/28 04:13:08;;;;;;;3.97;0.60;;;6.80;72.20;;;;;;5111961;28;20118;-69
2021/11/28 04:15:34;;;;;;;4.03;0.85;;;6.70;71.90;;;;;;5112436;28;20015;-69
2021/11/28 04:17:59;;;;;;;1.90;0.55;;;6.70;71.70;;;;;;5115749;28;20077;-69
2021/11/28 04:20:25;;;;;;;2.97;0.55;;;6.60;71.60;;;;;;5111903;28;20404;-68
2021/11/28 04:22:51;;;;;;;3.20;0.63;;;6.60;71.60;;;;;;5106810;28;20123;-68
2021/11/28 04:25:17;;;;;;;2.67;0.63;;;6.60;71.90;;;;;;5105887;28;20028;-68
2021/11/28 04:27:43;;;;;;;3.95;0.70;;;6.60;72.60;;;;;;5109973;28;20067;-68
2021/11/28 04:30:11;;;;;;;4.07;0.60;;;6.50;71.70;;;;;;5097825;28;20020;-68
2021/11/28 04:32:37;;;;;;;2.13;0.50;;;6.50;71.60;;;;;;5112639;28;20064;-68
2021/11/28 04:35:03;;;;;;;4.07;0.52;;;6.50;71.50;;;;;;5109736;28;20475;-69
2021/11/28 04:37:29;;;;;;;2.80;0.55;;;6.40;71.40;;;;;;5110019;28;20048;-68
2021/11/28 04:39:55;;;;;;;2.45;0.45;;;6.40;71.30;;;;;;5109651;28;20035;-68
2021/11/28 04:42:21;;;;;;;3.08;0.60;;;6.40;71.50;;;;;;5111439;28;20028;-69
2021/11/28 04:44:47;;;;;;;4.07;0.50;;;6.40;71.30;;;;;;5111627;28;20065;-69
2021/11/28 04:47:15;;;;;;;2.83;0.60;;;6.40;71.60;;;;;;5109648;28;20031;-68
2021/11/28 04:49:41;;;;;;;1.65;0.60;;;6.30;72.00;;;;;;5109411;28;20032;-69
2021/11/28 04:52:07;;;;;;;3.50;0.60;;;6.40;71.40;;;;;;5109771;28;20130;-68
2021/11/28 04:54:33;;;;;;;2.50;0.65;;;6.40;71.50;;;;;;5093662;28;20123;-69
2021/11/28 04:56:59;;;;;;;1.20;0.43;;;6.40;71.50;;;;;;5112878;28;20102;-68
2021/11/28 04:59:25;;;;;;;3.30;0.50;;;6.40;71.60;;;;;;5109290;28;20031;-68
2021/11/28 05:01:50;;;;;;;2.33;0.52;;;6.40;71.50;;;;;;5109584;27;20538;-68
2021/11/28 05:04:16;;;;;;;4.15;0.60;;;6.40;71.60;;;;;;5109220;28;20133;-68
2021/11/28 05:06:42;;;;;;;3.03;0.70;;;6.40;71.50;;;;;;5109254;28;20043;-68
2021/11/28 05:09:07;;;;;;;3.42;0.47;;;6.40;71.60;;;;;;5112729;28;20050;-69
2021/11/28 05:11:33;;;;;;;1.42;0.40;;;6.40;71.60;;;;;;5109827;28;20364;-69
2021/11/28 05:13:59;;;;;;;3.90;0.63;;;6.30;71.60;;;;;;5108782;28;20520;-69
2021/11/28 05:16:25;;;;;;;2.40;0.47;;;6.30;71.50;;;;;;5109135;28;20515;-69
2021/11/28 05:18:51;;;;;;;3.15;0.90;;;6.40;71.60;;;;;;5109152;28;20032;-68
2021/11/28 05:21:17;;;;;;;2.40;0.40;;;6.40;71.70;;;;;;5095383;28;20019;-68
2021/11/28 05:23:42;;;;;;;1.67;0.50;;;6.40;71.70;;;;;;5109922;28;20434;-68
2021/11/28 05:26:08;;;;;;;2.53;0.70;;;6.40;71.70;;;;;;5108674;28;20028;-68
2021/11/28 05:28:33;;;;;;;6.18;0.60;;;6.40;71.50;;;;;;5109138;28;20031;-68
2021/11/28 05:30:59;;;;;;;2.25;0.57;;;6.30;71.50;;;;;;5109029;28;20023;-68
2021/11/28 05:33:25;;;;;;;3.92;0.52;;;6.30;71.60;;;;;;5110086;28;20193;-68
2021/11/28 05:35:51;;;;;;;3.53;0.60;;;6.30;71.50;;;;;;5111026;28;20507;-68
2021/11/28 05:38:16;;;;;;;3.05;0.60;;;6.30;71.50;;;;;;5108576;28;20084;-68
2021/11/28 05:40:42;;;;;;;3.08;0.50;;;6.30;71.40;;;;;;5108410;28;20501;-68
2021/11/28 05:43:08;;;;;;;1.92;0.50;;;6.30;71.70;;;;;;5108438;28;20024;-68
2021/11/28 05:45:33;;;;;;;2.63;0.43;;;6.30;71.60;;;;;;5109121;28;20115;-68
2021/11/28 05:47:59;;;;;;;2.45;0.50;;;6.30;71.80;;;;;;5112113;28;20032;-68
2021/11/28 05:50:28;;;;;;;1.73;0.50;;;6.20;71.80;;;;;;5108720;28;20076;-68
2021/11/28 05:52:54;;;;;;;2.33;0.40;;;6.20;71.90;;;;;;5108251;28;20047;-69
2021/11/28 05:55:20;;;;;;;1.83;0.55;;;6.20;71.60;;;;;;5108374;28;20388;-68
2021/11/28 05:57:47;;;;;;;2.08;0.43;;;6.20;71.60;;;;;;5108591;28;20020;-68
2021/11/28 06:00:14;;;;;;;3.58;0.50;;;6.20;71.80;;;;;;5111124;28;20020;-68
2021/11/28 06:02:41;;;;;;;3.97;0.73;;;6.20;71.90;;;;;;5110479;28;20073;-68
2021/11/28 06:05:08;;;;;;;4.20;0.60;;;6.20;71.80;;;;;;5108499;28;20036;-68
2021/11/28 06:07:33;;;;;;;2.47;0.40;;;6.20;71.90;;;;;;5108465;28;20035;-68
2021/11/28 06:09:59;;;;;;;2.08;0.60;;;6.10;71.80;;;;;;5108461;28;20028;-68
2021/11/28 06:12:25;;;;;;;1.60;0.40;;;6.10;72.00;;;;;;5109763;28;23214;-68
2021/11/28 06:14:50;;;;;;;2.72;0.40;;;6.10;72.00;;;;;;5110761;28;20028;-68
2021/11/28 06:17:16;;;;;;;3.92;0.40;;;6.10;72.00;;;;;;5108109;28;20546;-68
2021/11/28 06:19:42;;;;;;;2.13;0.50;;;6.10;72.00;;;;;;5108355;28;20040;-68
2021/11/28 06:22:09;;;;;;;3.33;0.43;;;6.10;71.90;;;;;;5107995;28;20016;-68
2021/11/28 06:24:38;;;;;;;2.53;0.38;;;6.10;72.00;;;;;;5092578;28;20019;-68
2021/11/28 06:27:06;;;;;;;1.75;0.50;;;6.10;72.10;;;;;;5107937;28;20107;-67
2021/11/28 06:29:32;;;;;;;2.28;0.57;;;6.00;72.00;;;;;;5110339;28;20034;-68
2021/11/28 06:31:58;;;;;;;3.60;0.60;;;6.00;72.10;;;;;;5108034;28;20107;-67
2021/11/28 06:34:24;;;;;;;2.58;0.40;;;6.00;72.10;;;;;;5108196;28;20407;-68
2021/11/28 06:36:50;;;;;;;2.60;0.50;;;6.10;72.20;;;;;;5092958;28;20088;-68
2021/11/28 06:39:15;;;;;;;2.42;0.70;;;6.00;72.30;;;;;;5114324;28;20114;-68
2021/11/28 06:41:41;;;;;;;3.88;0.50;;;6.10;72.30;;;;;;5099669;28;20444;-68
2021/11/28 06:44:07;;;;;;;2.63;0.40;;;6.00;72.30;;;;;;5111986;28;20028;-68
2021/11/28 06:46:33;;;;;;;2.88;0.52;;;6.10;72.40;;;;;;5111853;28;20024;-67
2021/11/28 06:48:59;;;;;;;2.08;0.50;;;6.10;72.20;;;;;;5112183;28;20083;-67
2021/11/28 06:51:24;;;;;;;2.72;0.38;;;6.10;72.30;;;;;;5095865;28;20096;-67
2021/11/28 06:53:50;;;;;;;2.72;0.60;;;6.10;72.30;;;;;;5113975;28;20048;-68
2021/11/28 06:56:16;;;;;;;1.27;0.40;;;6.10;72.20;;;;;;5111684;28;20031;-67
2021/11/28 06:58:41;;;;;;;4.13;0.60;;;6.10;73.20;;;;;;5111628;28;20039;-68
2021/11/28 07:01:07;;;;;;;2.40;0.40;;;6.10;72.10;;;;;;5112478;27;20020;-68
2021/11/28 07:03:34;;;;;;;3.30;0.85;;;6.10;72.20;;;;;;5095963;28;20099;-69
2021/11/28 07:05:59;;;;;;;2.53;0.68;;;6.10;72.30;;;;;;5115212;28;20020;-68
2021/11/28 07:08:25;;;;;;;2.90;0.73;;;6.10;72.20;;;;;;5111960;28;20403;-68
2021/11/28 07:10:51;;;;;;;3.30;0.50;;;6.10;72.30;;;;;;5111445;28;20072;-68
2021/11/28 07:13:16;;;;;;;2.70;0.50;;;6.10;72.30;;;;;;5111417;28;20487;-68
2021/11/28 07:15:42;;;;;;;3.03;0.60;;;6.10;72.30;;;;;;5111497;28;20028;-68
2021/11/28 07:18:08;;;;;;;3.80;0.60;;;6.20;72.30;;;;;;5114619;28;20023;-68
2021/11/28 07:20:34;;;;;;;2.00;0.40;;;6.20;72.10;;;;;;5111920;28;20038;-69
2021/11/28 07:23:01;;;;;;;2.65;0.40;;;6.20;72.10;;;;;;5111415;28;20073;-68
2021/11/28 07:25:27;;;;;;;3.38;0.45;;;6.10;71.90;;;;;;5111622;28;20020;-68
2021/11/28 07:27:55;;;;;;;2.17;0.47;;;6.10;71.90;;;;;;5111522;28;20042;-68
2021/11/28 07:30:21;;;;;;;1.65;0.40;;;6.10;71.90;;;;;;5113103;28;20024;-68
2021/11/28 07:32:47;;;;;;;2.65;0.50;;;6.10;72.00;;;;;;5113064;28;20407;-68
2021/11/28 07:35:13;;;;;;;3.35;0.55;;;6.10;72.00;;;;;;5109917;28;20035;-68
2021/11/28 07:37:39;;;;;;;3.40;0.60;;;6.00;71.60;;;;;;5113333;28;20019;-68
2021/11/28 07:40:05;;;;;;;3.03;0.50;;;6.10;71.90;;;;;;5112655;28;20110;-68
2021/11/28 07:42:30;;;;;;;2.45;0.63;;;6.00;71.90;;;;;;5093718;28;20016;-68
2021/11/28 07:44:56;;;;;;;3.13;0.50;;;6.10;72.00;;;;;;5114121;28;20474;-68
2021/11/28 07:47:22;;;;;;;2.78;0.60;;;6.10;72.00;;;;;;5110582;28;20024;-68
2021/11/28 07:49:47;;;;;;;5.30;0.70;;;6.10;72.20;;;;;;5110128;28;20555;-67
2021/11/28 07:52:13;;;;;;;2.80;0.50;;;6.20;72.40;;;;;;5110936;28;20024;-68
2021/11/28 07:54:39;;;;;;;2.28;0.55;;;6.30;72.50;;;;;;5110533;28;20075;-68
2021/11/28 07:57:05;;;;;;;1.50;0.40;;;6.40;72.60;;;;;;5114616;28;20023;-68
2021/11/28 07:59:33;;;;;;;1.92;0.50;;;6.60;72.40;;;;;;5110806;28;20085;-68
2021/11/28 08:01:59;;;;;;;2.55;0.73;;;6.80;72.40;;;;;;5097825;28;20020;-68
2021/11/28 08:04:25;;;;;;;7.05;0.90;;;6.90;71.90;;;;;;5110037;28;20073;-68
2021/11/28 08:06:50;;;;;;;3.22;0.70;;;7.00;71.60;;;;;;5110749;28;20027;-68
2021/11/28 08:09:16;;;;;;;1.90;0.70;;;7.00;71.50;;;;;;5112771;28;20057;-68
2021/11/28 08:11:42;;;;;;;1.40;0.47;;;7.20;72.00;;;;;;5111619;28;20049;-68
2021/11/28 08:14:08;;;;;;;2.25;0.70;;;7.50;71.70;;;;;;5110007;28;20108;-68
2021/11/28 08:16:33;;;;;;;1.83;0.60;;;7.70;71.80;;;;;;5096735;28;20034;-68
2021/11/28 08:18:59;;;;;;;2.70;0.60;;;8.20;71.80;;;;;;5109764;28;20028;-68
2021/11/28 08:21:28;;;;;;;4.30;0.75;;;8.60;71.20;;;;;;5111742;28;20072;-68
2021/11/28 08:23:58;;;;;;;3.95;0.70;;;8.90;70.30;;;;;;5112854;28;20584;-68
2021/11/28 08:26:24;;;;;;;3.50;0.70;;;9.30;69.80;;;;;;5110300;28;20463;-68
2021/11/28 08:28:51;;;;;;;3.80;0.60;;;9.70;69.30;;;;;;5111199;28;20507;-67
2021/11/28 08:31:16;;;;;;;3.35;0.88;;;10.10;68.60;;;;;;5109841;28;20103;-68
2021/11/28 08:33:43;;;;;;;3.08;0.90;;;10.40;67.50;;;;;;5109360;28;20115;-68
2021/11/28 08:36:08;;;;;;;4.28;0.70;;;10.50;65.80;;;;;;5112861;28;20020;-68
2021/11/28 08:38:35;;;;;;;4.05;0.70;;;10.60;65.70;;;;;;5110630;28;20084;-68
2021/11/28 08:41:01;;;;;;;2.70;0.70;;;10.70;66.00;;;;;;5109645;28;20024;-68
2021/11/28 08:43:26;;;;;;;5.03;1.02;;;11.00;65.40;;;;;;5109984;28;20514;-68
2021/11/28 08:45:52;;;;;;;3.30;0.90;;;11.20;63.90;;;;;;5109796;28;20020;-68
2021/11/28 08:48:18;;;;;;;3.70;0.80;;;11.60;65.30;;;;;;5111422;28;20028;-69
2021/11/28 08:50:44;;;;;;;4.28;0.70;;;11.90;63.40;;;;;;5097111;28;20035;-68
2021/11/28 08:53:10;;;;;;;3.03;0.50;;;12.00;62.80;;;;;;5111305;28;20043;-67
2021/11/28 08:55:37;;;;;;;2.88;0.77;;;11.70;60.60;;;;;;5096636;28;20038;-68
2021/11/28 08:58:03;;;;;;;3.50;0.88;;;11.20;60.40;;;;;;5111213;28;20032;-68
2021/11/28 09:00:30;;;;;;;2.53;0.85;;;10.80;61.80;;;;;;5111464;28;20024;-68
2021/11/28 09:02:55;;;;;;;2.58;0.65;;;10.60;62.00;;;;;;5112388;28;20068;-70
2021/11/28 09:05:21;;;;;;;3.42;0.68;;;10.30;61.90;;;;;;5097165;28;20028;-67
2021/11/28 09:07:48;;;;;;;1.52;0.50;;;10.10;62.60;;;;;;5109193;28;20035;-67
2021/11/28 09:10:16;;;;;;;1.23;0.40;;;9.80;62.80;;;;;;5109476;28;20031;-67
2021/11/28 09:12:43;;;;;;;2.92;0.80;;;9.60;63.60;;;;;;5109387;28;20051;-67
2021/11/28 09:15:09;;;;;;;4.35;0.65;;;9.50;64.00;;;;;;5112014;28;20036;-66
2021/11/28 09:17:35;;;;;;;4.60;0.65;;;9.40;64.20;;;;;;5109875;28;20543;-67
2021/11/28 09:20:04;;;;;;;3.42;0.60;;;9.30;64.50;;;;;;5107068;28;20118;-68
2021/11/28 09:25:13;;;;;;;3.03;0.60;;;9.10;65.10;;;;;;5112068;27;20028;-69
2021/11/28 09:27:49;;;;;;;3.17;0.50;;;9.10;64.90;;;;;;5106227;28;20106;-69
2021/11/28 09:30:17;;;;;;;1.90;0.60;;;9.20;65.80;;;;;;5106320;28;20066;-68
2021/11/28 09:32:43;;;;;;;3.42;0.57;;;9.50;65.40;;;;;;5108626;28;20491;-68
2021/11/28 09:35:09;;;;;;;3.70;0.50;;;9.50;64.50;;;;;;5107960;28;20043;-69
2021/11/28 09:37:34;;;;;;;2.40;0.60;;;9.40;64.70;;;;;;5107525;28;20028;-69
2021/11/28 09:40:01;;;;;;;2.25;0.60;;;9.30;63.80;;;;;;5089869;28;20031;-64
2021/11/28 09:42:45;;;;;;;2.97;0.60;;;9.20;64.50;;;;;;5109901;28;20038;-64
2021/11/28 09:45:11;;;;;;;3.80;0.65;;;9.20;64.70;;;;;;5107907;28;20054;-64
2021/11/28 09:47:38;;;;;;;3.95;0.60;;;9.30;64.90;;;;;;5109349;28;20480;-66
2021/11/28 09:50:08;;;;;;;2.72;0.60;;;9.20;64.80;;;;;;5111170;27;20028;-68
2021/11/28 09:52:35;;;;;;;4.40;0.50;;;9.30;64.80;;;;;;5105534;27;20106;-68
2021/11/28 09:55:03;;;;;;;4.57;0.60;;;9.20;64.30;;;;;;5107655;28;20738;-67
2021/11/28 09:57:29;;;;;;;3.08;0.60;;;9.10;64.50;;;;;;5111840;27;20472;-69
2021/11/28 09:59:56;;;;;;;3.58;0.70;;;9.00;64.10;;;;;;5120500;28;20038;-69
2021/11/28 10:02:32;;;;;;;2.78;0.50;;;9.00;64.00;;;;;;5113375;28;20036;-68
2021/11/28 10:05:00;;;;;;;3.42;0.50;;;8.90;64.60;;;;;;5113181;28;20480;-69
2021/11/28 10:07:26;;;;;;;2.80;0.50;;;9.00;64.70;;;;;;5120405;28;20038;-68
2021/11/28 10:09:53;;;;;;;2.70;0.45;;;9.00;64.20;;;;;;5112246;28;20024;-65
2021/11/28 10:12:35;;;;;;;2.97;0.60;;;9.00;63.80;;;;;;5126519;27;20023;-68
2021/11/28 10:15:14;;;;;;;3.15;0.60;;;9.00;64.20;;;;;;5121160;27;20118;-69
2021/11/28 10:17:40;;;;;;;2.47;0.50;;;9.20;64.10;;;;;;5123004;27;20145;-69
2021/11/28 10:20:12;;;;;;;3.28;0.40;;;9.10;63.30;;;;;;5118737;27;20035;-67
2021/11/28 10:22:39;;;;;;;3.40;0.60;;;9.10;63.30;;;;;;5115491;27;20023;-68
2021/11/28 10:25:17;;;;;;;3.88;0.45;;;9.10;62.90;;;;;;5114681;27;20034;-67
2021/11/28 10:27:46;;;;;;;2.33;0.45;;;9.10;63.00;;;;;;5115445;27;20016;-67
2021/11/28 10:30:30;;;;;;;3.22;0.50;;;9.10;63.10;;;;;;5126528;27;20387;-69
2021/11/28 10:33:12;;;;;;;2.38;0.57;;;9.20;63.60;;;;;;5120209;27;20020;-69
2021/11/28 10:35:58;;;;;;;4.55;0.60;;;9.30;63.80;;;;;;5121386;27;20042;-65
2021/11/28 10:38:36;;;;;;;2.17;0.55;;;9.40;63.60;;;;;;5116372;27;20400;-65
2021/11/28 10:41:17;;;;;;;2.67;0.50;;;9.70;63.20;;;;;;5118163;27;20023;-65
2021/11/28 10:43:42;;;;;;;1.92;0.70;;;9.90;63.40;;;;;;5139411;27;20440;-66
2021/11/28 10:46:28;;;;;;;2.47;0.60;;;10.30;63.90;;;;;;5113697;27;20054;-66
2021/11/28 10:49:09;;;;;;;0.98;0.50;;;10.80;64.60;;;;;;5124262;27;20563;-66
2021/11/28 10:51:38;;;;;;;3.20;0.50;;;10.90;62.20;;;;;;5109949;28;20055;-66
2021/11/28 10:54:23;;;;;;;3.08;0.57;;;10.90;60.30;;;;;;5122159;27;20078;-66
2021/11/28 10:57:02;;;;;;;2.15;0.68;;;11.00;61.80;;;;;;5117680;27;20028;-66
2021/11/28 10:59:28;;;;;;;2.15;0.45;;;11.40;61.30;;;;;;5118004;27;20023;-66
2021/11/28 11:01:53;;;;;;;1.88;0.65;;;11.60;60.10;;;;;;5120956;27;20174;-69
2021/11/28 11:04:20;;;;;;;3.08;0.73;;;11.80;59.90;;;;;;5114097;27;20024;-69
2021/11/28 11:07:06;;;;;;;2.05;0.50;;;12.00;57.80;;;;;;5123148;27;20024;-70
2021/11/28 11:09:42;;;;;;;1.85;0.75;;;12.20;60.40;;;;;;5115859;27;20034;-68
2021/11/28 11:12:19;;;;;;;2.40;0.52;;;12.40;58.00;;;;;;5122024;27;20043;-67
2021/11/28 11:14:45;;;;;;;2.95;0.75;;;12.10;57.30;;;;;;5115851;27;20088;-68
2021/11/28 11:17:11;;;;;;;3.58;0.80;;;12.10;57.20;;;;;;5117454;27;20016;-70
2021/11/28 11:19:40;;;;;;;2.83;0.60;;;12.10;56.70;;;;;;5122223;27;20031;-69
2021/11/28 11:22:26;;;;;;;2.90;0.98;;;12.10;57.30;;;;;;5108068;27;20024;-69
2021/11/28 11:25:00;;;;;;;2.50;0.60;;;11.90;55.80;;;;;;5122832;27;20028;-69
2021/11/28 11:27:33;;;;;;;2.65;0.70;;;11.80;57.60;;;;;;5117966;27;20088;-68
2021/11/28 11:30:03;;;;;;;1.75;0.52;;;11.70;57.70;;;;;;5128525;27;20015;-68
2021/11/28 11:32:47;;;;;;;4.00;0.60;;;11.60;56.20;;;;;;5114297;27;20096;-68
2021/11/28 11:35:22;;;;;;;;;;;11.50;57.80;;;;;;5118796;27;20136;-68
2021/11/28 11:37:50;;;;;;;2.10;0.60;;;11.40;59.00;;;;;;5120185;27;20009;-70
2021/11/28 11:40:19;;;;;;;3.40;0.70;;;11.10;56.60;;;;;;5126003;27;20038;-68
2021/11/28 11:42:46;;;;;;;2.03;0.52;;;10.90;57.60;;;;;;5104045;27;20040;-69
2021/11/28 11:45:15;;;;;;;3.83;0.80;;;10.90;57.90;;;;;;5131652;27;20015;-69
2021/11/28 11:47:41;;;;;;;1.27;0.50;;;10.90;58.00;;;;;;5125259;27;20047;-65
2021/11/28 11:50:10;;;;;;;1.92;0.52;;;10.80;56.90;;;;;;5124953;27;20027;-64
2021/11/28 11:52:37;;;;;;;4.07;0.70;;;10.80;58.10;;;;;;5117251;27;20044;-64
2021/11/28 11:55:17;;;;;;;2.92;0.60;;;10.90;58.20;;;;;;5126195;27;20039;-65
2021/11/28 11:58:08;;;;;;;2.03;0.70;;;10.90;58.10;;;;;;5109904;27;20020;-64
2021/11/28 12:00:43;;;;;;;3.72;0.60;;;10.80;58.50;;;;;;5117721;27;20023;-64
2021/11/28 12:03:19;;;;;;;1.23;0.65;;;11.00;58.20;;;;;;5128282;27;20027;-64
2021/11/28 12:05:47;;;;;;;1.98;0.50;;;11.10;57.40;;;;;;5124108;27;20517;-64
2021/11/28 12:08:15;;;;;;;1.63;0.30;;;11.20;57.50;;;;;;5122741;27;20106;-64
2021/11/28 12:10:42;;;;;;;3.38;0.70;;;11.20;57.00;;;;;;5118724;27;20024;-64
2021/11/28 12:13:26;;;;;;;2.83;0.38;;;11.40;57.00;;;;;;5113514;27;20034;-65
2021/11/28 12:16:16;;;;;;;3.40;0.52;;;11.50;55.80;;;;;;5103887;27;20028;-66
2021/11/28 12:18:50;;;;;;;3.58;0.60;;;11.30;55.50;;;;;;5112976;27;20028;-65
2021/11/28 12:21:38;;;;;;;2.00;0.50;;;11.10;54.80;;;;;;5122796;27;20019;-68
2021/11/28 12:24:09;;;;;;;2.38;0.60;;;11.10;55.80;;;;;;5101458;28;20093;-66
2021/11/28 12:26:40;;;;;;;1.50;0.40;;;11.00;53.30;;;;;;5123166;27;20071;-67
2021/11/28 12:29:14;;;;;;;1.92;0.57;;;11.00;54.40;;;;;;5113683;27;20498;-73
2021/11/28 12:31:50;;;;;;;6.60;0.70;;;11.20;56.80;;;;;;5121374;27;20507;-69
2021/11/28 12:34:19;;;;;;;0.93;0.30;;;11.50;55.10;;;;;;5109237;27;20043;-70
2021/11/28 12:36:52;;;;;;;2.50;0.50;;;11.50;55.00;;;;;;5113423;27;20029;-69
2021/11/28 12:39:24;;;;;;;2.47;0.50;;;11.60;54.10;;;;;;5109995;27;20050;-69
2021/11/28 12:42:09;;;;;;;1.48;0.75;;;11.60;52.30;;;;;;5108622;27;20031;-68
2021/11/28 12:44:55;;;;;;;2.15;0.50;;;11.50;52.70;;;;;;5104188;28;20088;-67
2021/11/28 12:47:26;;;;;;;1.50;0.47;;;11.30;52.00;;;;;;5108405;27;20072;-67
2021/11/28 12:49:57;;;;;;;1.67;0.38;;;11.20;53.50;;;;;;5104596;27;20031;-67
2021/11/28 12:52:25;;;;;;;2.35;0.60;;;11.00;52.70;;;;;;5105456;27;20019;-68
2021/11/28 12:55:03;;;;;;;2.38;0.60;;;10.70;52.50;;;;;;5105929;27;20500;-67
2021/11/28 12:57:35;;;;;;;2.03;0.40;;;10.50;53.20;;;;;;5105785;28;20029;-67
2021/11/28 13:00:12;;;;;;;2.55;0.40;;;10.50;54.20;;;;;;5106541;27;20700;-67
2021/11/28 13:02:44;;;;;;;1.85;0.32;;;10.50;54.20;;;;;;5112805;27;20036;-67
2021/11/28 13:05:28;;;;;;;2.92;0.50;;;10.80;54.50;;;;;;5087585;27;20379;-66
2021/11/28 13:08:00;;;;;;;1.77;0.40;;;10.70;54.50;;;;;;5106590;27;20028;-66
2021/11/28 13:10:53;;;;;;;3.80;0.60;;;10.40;53.80;;;;;;5104168;27;20503;-66